sensor_id;sensor_type;location;lat;lon;timestamp;pressure;altitude;pressure_sealevel;temperature;humidity
47430;BME280;33181;49.246;7.372;2022-08-05T00:02:17;98595.59;;;28.05;48.92
47430;BME280;33181;49.246;7.372;2022-08-05T00:04:43;98583.53;;;27.95;48.95
47430;BME280;33181;49.246;7.372;2022-08-05T00:07:10;98574.50;;;27.90;48.48
47430;BME280;33181;49.246;7.372;2022-08-05T00:09:36;98560.88;;;27.97;48.54
47430;BME280;33181;49.246;7.372;2022-08-05T00:12:02;98549.34;;;28.01;48.65
47430;BME280;33181;49.246;7.372;2022-08-05T00:14:28;98541.03;;;28.03;49.13
47430;BME280;33181;49.246;7.372;2022-08-05T00:16:54;98515.94;;;27.90;49.24
47430;BME280;33181;49.246;7.372;2022-08-05T00:19:23;98494.56;;;27.89;48.27
47430;BME280;33181;49.246;7.372;2022-08-05T00:21:49;98479.78;;;27.91;47.89
47430;BME280;33181;49.246;7.372;2022-08-05T00:24:15;98457.41;;;27.79;46.87
47430;BME280;33181;49.246;7.372;2022-08-05T00:26:41;98458.25;;;27.68;47.86
47430;BME280;33181;49.246;7.372;2022-08-05T00:29:06;98446.78;;;27.61;47.52
47430;BME280;33181;49.246;7.372;2022-08-05T00:31:32;98432.78;;;27.47;47.86
47430;BME280;33181;49.246;7.372;2022-08-05T00:33:58;98429.50;;;27.45;47.88
47430;BME280;33181;49.246;7.372;2022-08-05T00:36:24;98433.94;;;27.51;47.74
47430;BME280;33181;49.246;7.372;2022-08-05T00:38:50;98417.44;;;27.36;48.01
47430;BME280;33181;49.246;7.372;2022-08-05T00:41:33;98412.19;;;27.29;48.34
47430;BME280;33181;49.246;7.372;2022-08-05T00:44:00;98441.84;;;27.41;48.25
47430;BME280;33181;49.246;7.372;2022-08-05T00:46:26;98451.66;;;27.47;48.03
47430;BME280;33181;49.246;7.372;2022-08-05T00:48:52;98479.09;;;27.56;47.99
47430;BME280;33181;49.246;7.372;2022-08-05T00:51:19;98486.94;;;27.57;47.58
47430;BME280;33181;49.246;7.372;2022-08-05T00:53:46;98492.47;;;27.50;47.71
47430;BME280;33181;49.246;7.372;2022-08-05T00:56:14;98473.72;;;27.44;47.70
47430;BME280;33181;49.246;7.372;2022-08-05T00:58:40;98475.47;;;27.50;47.66
47430;BME280;33181;49.246;7.372;2022-08-05T01:01:06;98468.41;;;27.49;47.75
47430;BME280;33181;49.246;7.372;2022-08-05T01:03:32;98453.91;;;27.38;48.20
47430;BME280;33181;49.246;7.372;2022-08-05T01:05:57;98444.38;;;27.19;48.39
47430;BME280;33181;49.246;7.372;2022-08-05T01:08:23;98448.69;;;27.20;48.54
47430;BME280;33181;49.246;7.372;2022-08-05T01:10:57;98472.59;;;27.28;48.54
47430;BME280;33181;49.246;7.372;2022-08-05T01:16:49;98519.53;;;27.27;49.49
47430;BME280;33181;49.246;7.372;2022-08-05T01:22:04;98557.16;;;27.10;50.37
47430;BME280;33181;49.246;7.372;2022-08-05T01:25:32;98586.69;;;26.81;51.13
47430;BME280;33181;49.246;7.372;2022-08-05T01:30:26;98568.16;;;26.62;54.27
47430;BME280;33181;49.246;7.372;2022-08-05T01:32:55;98551.75;;;26.63;55.32
47430;BME280;33181;49.246;7.372;2022-08-05T01:35:27;98546.81;;;26.60;56.43
47430;BME280;33181;49.246;7.372;2022-08-05T01:37:57;98529.34;;;26.51;56.69
47430;BME280;33181;49.246;7.372;2022-08-05T01:40:28;98505.94;;;26.09;57.33
47430;BME280;33181;49.246;7.372;2022-08-05T01:42:56;98493.38;;;25.73;61.32
47430;BME280;33181;49.246;7.372;2022-08-05T01:45:24;98489.41;;;25.27;63.75
47430;BME280;33181;49.246;7.372;2022-08-05T01:47:52;98500.50;;;25.19;63.52
47430;BME280;33181;49.246;7.372;2022-08-05T01:50:34;98493.06;;;25.14;63.54
47430;BME280;33181;49.246;7.372;2022-08-05T01:53:06;98490.81;;;25.11;64.42
47430;BME280;33181;49.246;7.372;2022-08-05T01:55:33;98492.88;;;25.09;65.79
47430;BME280;33181;49.246;7.372;2022-08-05T01:58:00;98481.19;;;25.04;66.25
47430;BME280;33181;49.246;7.372;2022-08-05T02:00:28;98468.19;;;25.01;65.50
47430;BME280;33181;49.246;7.372;2022-08-05T02:03:11;98455.03;;;24.92;68.01
47430;BME280;33181;49.246;7.372;2022-08-05T02:05:39;98433.41;;;24.69;67.67
47430;BME280;33181;49.246;7.372;2022-08-05T02:08:06;98437.56;;;24.40;67.96
47430;BME280;33181;49.246;7.372;2022-08-05T02:10:43;98442.78;;;24.35;67.75
47430;BME280;33181;49.246;7.372;2022-08-05T02:13:18;98454.84;;;24.50;67.41
47430;BME280;33181;49.246;7.372;2022-08-05T02:16:02;98464.78;;;24.68;67.61
47430;BME280;33181;49.246;7.372;2022-08-05T02:18:46;98473.53;;;24.64;64.03
47430;BME280;33181;49.246;7.372;2022-08-05T02:21:29;98473.91;;;24.67;65.14
47430;BME280;33181;49.246;7.372;2022-08-05T02:24:02;98483.09;;;24.78;66.77
47430;BME280;33181;49.246;7.372;2022-08-05T02:26:41;98495.44;;;24.61;69.12
47430;BME280;33181;49.246;7.372;2022-08-05T02:29:10;98541.59;;;24.51;71.69
47430;BME280;33181;49.246;7.372;2022-08-05T02:31:38;98571.22;;;24.44;72.45
47430;BME280;33181;49.246;7.372;2022-08-05T02:34:08;98598.56;;;24.28;72.97
47430;BME280;33181;49.246;7.372;2022-08-05T02:36:41;98616.56;;;24.14;71.54
47430;BME280;33181;49.246;7.372;2022-08-05T02:39:08;98603.03;;;24.02;72.21
47430;BME280;33181;49.246;7.372;2022-08-05T02:41:36;98642.19;;;24.10;72.37
47430;BME280;33181;49.246;7.372;2022-08-05T02:44:07;98653.69;;;24.24;72.11
47430;BME280;33181;49.246;7.372;2022-08-05T02:46:35;98665.28;;;24.18;69.36
47430;BME280;33181;49.246;7.372;2022-08-05T02:49:04;98653.56;;;24.12;64.21
47430;BME280;33181;49.246;7.372;2022-08-05T02:51:34;98651.69;;;24.13;64.64
47430;BME280;33181;49.246;7.372;2022-08-05T02:54:02;98630.22;;;24.13;64.81
47430;BME280;33181;49.246;7.372;2022-08-05T02:56:29;98605.63;;;24.16;64.35
47430;BME280;33181;49.246;7.372;2022-08-05T02:58:55;98610.16;;;24.22;64.04
47430;BME280;33181;49.246;7.372;2022-08-05T03:01:26;98621.69;;;24.22;64.64
47430;BME280;33181;49.246;7.372;2022-08-05T03:03:57;98624.59;;;24.21;63.68
47430;BME280;33181;49.246;7.372;2022-08-05T03:06:23;98630.94;;;24.33;63.70
47430;BME280;33181;49.246;7.372;2022-08-05T03:08:51;98650.53;;;24.40;63.95
47430;BME280;33181;49.246;7.372;2022-08-05T03:11:21;98652.16;;;24.48;64.05
47430;BME280;33181;49.246;7.372;2022-08-05T03:13:47;98663.38;;;24.32;64.22
47430;BME280;33181;49.246;7.372;2022-08-05T03:16:14;98662.78;;;24.23;63.80
47430;BME280;33181;49.246;7.372;2022-08-05T03:18:40;98665.09;;;24.19;64.33
47430;BME280;33181;49.246;7.372;2022-08-05T03:21:06;98673.91;;;24.26;64.62
47430;BME280;33181;49.246;7.372;2022-08-05T03:23:37;98679.69;;;24.30;64.07
47430;BME280;33181;49.246;7.372;2022-08-05T03:26:04;98691.47;;;24.29;64.20
47430;BME280;33181;49.246;7.372;2022-08-05T03:28:30;98688.16;;;24.27;64.09
47430;BME280;33181;49.246;7.372;2022-08-05T03:30:59;98705.94;;;24.28;64.26
47430;BME280;33181;49.246;7.372;2022-08-05T03:33:27;98711.97;;;24.17;64.67
47430;BME280;33181;49.246;7.372;2022-08-05T03:35:55;98716.50;;;24.16;64.95
47430;BME280;33181;49.246;7.372;2022-08-05T03:38:22;98712.19;;;24.15;64.90
47430;BME280;33181;49.246;7.372;2022-08-05T03:40:48;98692.19;;;24.04;65.01
47430;BME280;33181;49.246;7.372;2022-08-05T03:43:15;98691.59;;;24.02;65.37
47430;BME280;33181;49.246;7.372;2022-08-05T03:45:42;98700.06;;;23.93;66.24
47430;BME280;33181;49.246;7.372;2022-08-05T03:48:08;98721.13;;;23.89;66.30
47430;BME280;33181;49.246;7.372;2022-08-05T03:51:02;98736.00;;;23.85;66.63
47430;BME280;33181;49.246;7.372;2022-08-05T03:53:39;98731.09;;;23.69;67.24
47430;BME280;33181;49.246;7.372;2022-08-05T03:56:21;98744.69;;;23.54;68.20
47430;BME280;33181;49.246;7.372;2022-08-05T03:58:50;98737.47;;;23.54;68.11
47430;BME280;33181;49.246;7.372;2022-08-05T04:01:20;98739.53;;;23.59;67.92
47430;BME280;33181;49.246;7.372;2022-08-05T04:03:49;98747.34;;;23.67;67.83
47430;BME280;33181;49.246;7.372;2022-08-05T04:06:17;98744.47;;;23.62;68.31
47430;BME280;33181;49.246;7.372;2022-08-05T04:08:44;98745.31;;;23.69;67.98
47430;BME280;33181;49.246;7.372;2022-08-05T04:11:11;98744.88;;;23.66;68.00
47430;BME280;33181;49.246;7.372;2022-08-05T04:13:40;98761.59;;;23.54;68.53
47430;BME280;33181;49.246;7.372;2022-08-05T04:16:09;98757.28;;;23.47;68.49
47430;BME280;33181;49.246;7.372;2022-08-05T04:18:37;98747.19;;;23.49;68.44
47430;BME280;33181;49.246;7.372;2022-08-05T04:21:05;98749.22;;;23.47;68.43
47430;BME280;33181;49.246;7.372;2022-08-05T04:23:33;98738.91;;;23.50;68.44
47430;BME280;33181;49.246;7.372;2022-08-05T04:25:59;98748.59;;;23.65;67.87
47430;BME280;33181;49.246;7.372;2022-08-05T04:28:25;98757.69;;;23.84;67.50
47430;BME280;33181;49.246;7.372;2022-08-05T04:30:50;98755.78;;;24.04;66.38
47430;BME280;33181;49.246;7.372;2022-08-05T04:33:16;98741.72;;;24.15;66.51
47430;BME280;33181;49.246;7.372;2022-08-05T04:35:43;98743.94;;;24.25;65.97
47430;BME280;33181;49.246;7.372;2022-08-05T04:38:09;98715.22;;;24.32;65.67
47430;BME280;33181;49.246;7.372;2022-08-05T04:40:36;98698.97;;;24.14;66.55
47430;BME280;33181;49.246;7.372;2022-08-05T04:43:03;98710.06;;;24.24;66.95
47430;BME280;33181;49.246;7.372;2022-08-05T04:45:29;98726.88;;;24.58;66.37
47430;BME280;33181;49.246;7.372;2022-08-05T04:48:12;98725.91;;;24.84;65.94
47430;BME280;33181;49.246;7.372;2022-08-05T04:50:43;98715.56;;;25.19;64.71
47430;BME280;33181;49.246;7.372;2022-08-05T04:53:11;98710.94;;;25.51;63.76
47430;BME280;33181;49.246;7.372;2022-08-05T04:55:38;98718.66;;;25.66;62.92
47430;BME280;33181;49.246;7.372;2022-08-05T04:58:06;98717.63;;;25.67;62.86
47430;BME280;33181;49.246;7.372;2022-08-05T05:00:33;98715.31;;;25.71;62.61
47430;BME280;33181;49.246;7.372;2022-08-05T05:03:00;98694.47;;;25.84;62.45
47430;BME280;33181;49.246;7.372;2022-08-05T05:05:26;98687.78;;;25.69;62.66
47430;BME280;33181;49.246;7.372;2022-08-05T05:07:54;98689.13;;;25.59;62.64
47430;BME280;33181;49.246;7.372;2022-08-05T05:10:20;98692.13;;;25.51;63.20
47430;BME280;33181;49.246;7.372;2022-08-05T05:12:46;98701.38;;;25.55;63.05
47430;BME280;33181;49.246;7.372;2022-08-05T05:15:11;98704.06;;;25.55;62.87
47430;BME280;33181;49.246;7.372;2022-08-05T05:17:39;98698.47;;;25.75;62.60
47430;BME280;33181;49.246;7.372;2022-08-05T05:20:07;98702.28;;;25.93;61.77
47430;BME280;33181;49.246;7.372;2022-08-05T05:22:34;98701.44;;;26.10;60.95
47430;BME280;33181;49.246;7.372;2022-08-05T05:25:00;98705.53;;;26.31;60.55
47430;BME280;33181;49.246;7.372;2022-08-05T05:27:35;98699.22;;;26.38;59.56
47430;BME280;33181;49.246;7.372;2022-08-05T05:30:02;98688.84;;;26.23;59.84
47430;BME280;33181;49.246;7.372;2022-08-05T05:32:28;98685.25;;;25.55;61.43
47430;BME280;33181;49.246;7.372;2022-08-05T05:34:53;98687.00;;;25.43;62.24
47430;BME280;33181;49.246;7.372;2022-08-05T05:37:19;98688.44;;;25.46;62.76
47430;BME280;33181;49.246;7.372;2022-08-05T05:39:45;98687.00;;;25.43;62.81
47430;BME280;33181;49.246;7.372;2022-08-05T05:42:11;98699.88;;;25.41;63.19
47430;BME280;33181;49.246;7.372;2022-08-05T05:44:37;98718.72;;;25.34;63.14
47430;BME280;33181;49.246;7.372;2022-08-05T05:47:03;98735.41;;;25.18;63.27
47430;BME280;33181;49.246;7.372;2022-08-05T05:49:28;98740.44;;;24.76;65.53
47430;BME280;33181;49.246;7.372;2022-08-05T05:51:54;98706.53;;;24.43;67.48
47430;BME280;33181;49.246;7.372;2022-08-05T05:54:20;98698.47;;;24.43;68.25
47430;BME280;33181;49.246;7.372;2022-08-05T05:56:46;98702.75;;;24.51;68.00
47430;BME280;33181;49.246;7.372;2022-08-05T05:59:12;98719.44;;;24.60;67.93
47430;BME280;33181;49.246;7.372;2022-08-05T06:01:40;98735.00;;;24.44;68.77
47430;BME280;33181;49.246;7.372;2022-08-05T06:04:13;98741.88;;;24.20;69.75
47430;BME280;33181;49.246;7.372;2022-08-05T06:06:40;98777.84;;;24.13;70.71
47430;BME280;33181;49.246;7.372;2022-08-05T06:09:10;98795.84;;;23.92;72.35
47430;BME280;33181;49.246;7.372;2022-08-05T06:11:36;98797.72;;;23.78;72.61
47430;BME280;33181;49.246;7.372;2022-08-05T06:14:02;98775.00;;;23.61;72.98
47430;BME280;33181;49.246;7.372;2022-08-05T06:16:27;98752.31;;;23.44;74.27
47430;BME280;33181;49.246;7.372;2022-08-05T06:18:53;98742.00;;;23.47;74.43
47430;BME280;33181;49.246;7.372;2022-08-05T06:21:19;98763.66;;;23.66;74.44
47430;BME280;33181;49.246;7.372;2022-08-05T06:23:45;98762.22;;;23.56;75.27
47430;BME280;33181;49.246;7.372;2022-08-05T06:26:11;98766.75;;;23.63;75.59
47430;BME280;33181;49.246;7.372;2022-08-05T06:28:37;98776.25;;;23.58;74.38
47430;BME280;33181;49.246;7.372;2022-08-05T06:31:03;98787.38;;;23.62;75.09
47430;BME280;33181;49.246;7.372;2022-08-05T06:33:29;98787.78;;;23.66;74.64
47430;BME280;33181;49.246;7.372;2022-08-05T06:35:54;98796.91;;;23.71;74.65
47430;BME280;33181;49.246;7.372;2022-08-05T06:38:20;98794.41;;;23.56;74.47
47430;BME280;33181;49.246;7.372;2022-08-05T06:40:46;98794.19;;;23.38;74.93
47430;BME280;33181;49.246;7.372;2022-08-05T06:43:12;98800.34;;;23.19;76.01
47430;BME280;33181;49.246;7.372;2022-08-05T06:45:38;98791.25;;;23.13;76.61
47430;BME280;33181;49.246;7.372;2022-08-05T06:48:04;98805.09;;;23.17;76.78
47430;BME280;33181;49.246;7.372;2022-08-05T06:50:30;98824.69;;;23.17;77.34
47430;BME280;33181;49.246;7.372;2022-08-05T06:52:55;98808.00;;;23.22;77.64
47430;BME280;33181;49.246;7.372;2022-08-05T06:55:21;98773.97;;;23.22;77.53
47430;BME280;33181;49.246;7.372;2022-08-05T06:57:47;98770.47;;;23.35;76.89
47430;BME280;33181;49.246;7.372;2022-08-05T07:00:13;98806.34;;;23.34;76.51
47430;BME280;33181;49.246;7.372;2022-08-05T07:02:43;98788.59;;;23.26;76.18
47430;BME280;33181;49.246;7.372;2022-08-05T07:05:09;98763.66;;;23.19;77.36
47430;BME280;33181;49.246;7.372;2022-08-05T07:07:37;98784.50;;;23.30;77.06
47430;BME280;33181;49.246;7.372;2022-08-05T07:10:03;98791.91;;;23.35;77.04
47430;BME280;33181;49.246;7.372;2022-08-05T07:12:29;98788.22;;;23.36;77.34
47430;BME280;33181;49.246;7.372;2022-08-05T07:15:14;98778.72;;;23.27;77.15
47430;BME280;33181;49.246;7.372;2022-08-05T07:17:58;98804.50;;;23.41;77.07
47430;BME280;33181;49.246;7.372;2022-08-05T07:20:24;98818.13;;;23.46;76.17
47430;BME280;33181;49.246;7.372;2022-08-05T07:22:49;98810.91;;;23.40;76.20
47430;BME280;33181;49.246;7.372;2022-08-05T07:25:15;98812.75;;;23.40;76.63
47430;BME280;33181;49.246;7.372;2022-08-05T07:27:41;98802.22;;;23.38;76.48
47430;BME280;33181;49.246;7.372;2022-08-05T07:30:07;98792.72;;;23.16;76.04
47430;BME280;33181;49.246;7.372;2022-08-05T07:32:37;98789.88;;;22.62;78.39
47430;BME280;33181;49.246;7.372;2022-08-05T07:35:08;98777.59;;;22.33;80.27
47430;BME280;33181;49.246;7.372;2022-08-05T07:37:34;98777.22;;;22.43;80.34
47430;BME280;33181;49.246;7.372;2022-08-05T07:39:59;98767.59;;;22.55;78.86
47430;BME280;33181;49.246;7.372;2022-08-05T07:42:25;98749.94;;;22.74;78.41
47430;BME280;33181;49.246;7.372;2022-08-05T07:44:51;98747.16;;;23.02;77.62
47430;BME280;33181;49.246;7.372;2022-08-05T07:47:16;98739.34;;;23.27;76.46
47430;BME280;33181;49.246;7.372;2022-08-05T07:49:42;98726.56;;;23.36;75.43
47430;BME280;33181;49.246;7.372;2022-08-05T07:52:08;98726.75;;;23.41;73.62
47430;BME280;33181;49.246;7.372;2022-08-05T07:54:34;98725.09;;;23.47;72.61
47430;BME280;33181;49.246;7.372;2022-08-05T07:57:01;98734.59;;;23.56;73.03
47430;BME280;33181;49.246;7.372;2022-08-05T07:59:27;98745.28;;;23.63;72.84
47430;BME280;33181;49.246;7.372;2022-08-05T08:01:53;98750.66;;;23.76;72.86
47430;BME280;33181;49.246;7.372;2022-08-05T08:04:19;98763.47;;;23.87;74.10
47430;BME280;33181;49.246;7.372;2022-08-05T08:06:44;98773.13;;;24.01;73.40
47430;BME280;33181;49.246;7.372;2022-08-05T08:09:10;98779.50;;;24.14;70.85
47430;BME280;33181;49.246;7.372;2022-08-05T08:11:36;98789.59;;;24.12;70.89
47430;BME280;33181;49.246;7.372;2022-08-05T08:14:03;98794.78;;;24.13;71.93
47430;BME280;33181;49.246;7.372;2022-08-05T08:16:28;98792.25;;;24.32;72.11
47430;BME280;33181;49.246;7.372;2022-08-05T08:18:54;98773.44;;;24.45;71.33
47430;BME280;33181;49.246;7.372;2022-08-05T08:21:20;98786.34;;;24.68;69.86
47430;BME280;33181;49.246;7.372;2022-08-05T08:23:46;98800.16;;;24.78;69.53
47430;BME280;33181;49.246;7.372;2022-08-05T08:26:12;98771.97;;;24.94;68.48
47430;BME280;33181;49.246;7.372;2022-08-05T08:28:38;98769.56;;;25.11;66.55
47430;BME280;33181;49.246;7.372;2022-08-05T08:31:05;98771.75;;;25.27;66.95
47430;BME280;33181;49.246;7.372;2022-08-05T08:33:31;98765.13;;;25.55;66.48
47430;BME280;33181;49.246;7.372;2022-08-05T08:35:56;98768.00;;;25.60;64.26
47430;BME280;33181;49.246;7.372;2022-08-05T08:38:22;98775.31;;;25.71;65.24
47430;BME280;33181;49.246;7.372;2022-08-05T08:40:48;98784.75;;;25.80;65.69
47430;BME280;33181;49.246;7.372;2022-08-05T08:43:15;98797.34;;;26.11;64.68
47430;BME280;33181;49.246;7.372;2022-08-05T08:45:43;98793.66;;;26.24;63.59
47430;BME280;33181;49.246;7.372;2022-08-05T08:48:11;98794.56;;;26.37;64.55
47430;BME280;33181;49.246;7.372;2022-08-05T08:50:42;98776.63;;;26.49;61.92
47430;BME280;33181;49.246;7.372;2022-08-05T08:53:11;98772.06;;;26.79;61.89
47430;BME280;33181;49.246;7.372;2022-08-05T08:55:39;98761.53;;;27.08;60.27
47430;BME280;33181;49.246;7.372;2022-08-05T08:58:06;98771.06;;;27.22;59.56
47430;BME280;33181;49.246;7.372;2022-08-05T09:00:32;98773.94;;;27.51;58.46
47430;BME280;33181;49.246;7.372;2022-08-05T09:02:58;98786.63;;;27.50;58.73
47430;BME280;33181;49.246;7.372;2022-08-05T09:05:25;98794.19;;;27.84;58.12
47430;BME280;33181;49.246;7.372;2022-08-05T09:07:53;98797.94;;;27.94;56.83
47430;BME280;33181;49.246;7.372;2022-08-05T09:10:20;98795.13;;;28.01;57.68
47430;BME280;33181;49.246;7.372;2022-08-05T09:12:46;98783.38;;;28.07;56.72
47430;BME280;33181;49.246;7.372;2022-08-05T09:15:13;98777.75;;;27.97;57.41
47430;BME280;33181;49.246;7.372;2022-08-05T09:17:39;98782.56;;;27.95;56.33
47430;BME280;33181;49.246;7.372;2022-08-05T09:20:06;98791.94;;;28.04;57.10
47430;BME280;33181;49.246;7.372;2022-08-05T09:23:04;98798.75;;;28.18;57.01
47430;BME280;33181;49.246;7.372;2022-08-05T09:25:31;98803.16;;;28.36;57.02
47430;BME280;33181;49.246;7.372;2022-08-05T09:31:04;98821.19;;;28.07;54.00
47430;BME280;33181;49.246;7.372;2022-08-05T09:33:31;98831.03;;;28.13;53.53
47430;BME280;33181;49.246;7.372;2022-08-05T09:36:10;98837.72;;;27.99;54.27
47430;BME280;33181;49.246;7.372;2022-08-05T09:38:36;98833.97;;;27.88;54.89
47430;BME280;33181;49.246;7.372;2022-08-05T09:41:07;98829.66;;;27.87;55.15
47430;BME280;33181;49.246;7.372;2022-08-05T09:43:38;98823.50;;;27.68;55.23
47430;BME280;33181;49.246;7.372;2022-08-05T09:46:05;98829.44;;;27.47;55.73
47430;BME280;33181;49.246;7.372;2022-08-05T09:48:36;98819.88;;;27.33;56.05
47430;BME280;33181;49.246;7.372;2022-08-05T09:51:08;98829.41;;;27.05;56.99
47430;BME280;33181;49.246;7.372;2022-08-05T09:53:52;98815.34;;;26.85;57.84
47430;BME280;33181;49.246;7.372;2022-08-05T09:56:30;98816.22;;;26.97;57.80
47430;BME280;33181;49.246;7.372;2022-08-05T09:59:08;98806.16;;;27.04;57.27
47430;BME280;33181;49.246;7.372;2022-08-05T10:01:38;98811.50;;;26.92;58.09
47430;BME280;33181;49.246;7.372;2022-08-05T10:04:12;98806.91;;;26.81;58.76
47430;BME280;33181;49.246;7.372;2022-08-05T10:06:57;98804.34;;;26.86;58.35
47430;BME280;33181;49.246;7.372;2022-08-05T10:09:23;98803.22;;;26.94;58.96
47430;BME280;33181;49.246;7.372;2022-08-05T10:11:49;98805.00;;;27.00;58.87
47430;BME280;33181;49.246;7.372;2022-08-05T10:14:24;98819.66;;;27.04;58.12
47430;BME280;33181;49.246;7.372;2022-08-05T10:16:51;98825.19;;;27.09;57.06
47430;BME280;33181;49.246;7.372;2022-08-05T10:19:22;98828.53;;;27.23;56.42
47430;BME280;33181;49.246;7.372;2022-08-05T10:21:48;98822.47;;;27.27;55.97
47430;BME280;33181;49.246;7.372;2022-08-05T10:24:17;98830.97;;;27.43;55.08
47430;BME280;33181;49.246;7.372;2022-08-05T10:26:47;98835.16;;;27.27;54.53
47430;BME280;33181;49.246;7.372;2022-08-05T10:29:14;98836.13;;;27.14;55.64
47430;BME280;33181;49.246;7.372;2022-08-05T10:31:40;98839.50;;;27.10;56.01
47430;BME280;33181;49.246;7.372;2022-08-05T10:34:08;98837.03;;;27.08;55.53
47430;BME280;33181;49.246;7.372;2022-08-05T10:36:39;98840.31;;;27.10;55.50
47430;BME280;33181;49.246;7.372;2022-08-05T10:39:32;98839.75;;;27.08;55.21
47430;BME280;33181;49.246;7.372;2022-08-05T10:44:30;98851.50;;;26.95;55.73
47430;BME280;33181;49.246;7.372;2022-08-05T10:46:57;98843.41;;;26.95;56.07
47430;BME280;33181;49.246;7.372;2022-08-05T10:49:25;98849.16;;;27.17;55.54
47430;BME280;33181;49.246;7.372;2022-08-05T10:51:54;98853.72;;;27.17;55.94
47430;BME280;33181;49.246;7.372;2022-08-05T10:54:48;98850.13;;;27.23;55.21
47430;BME280;33181;49.246;7.372;2022-08-05T10:57:27;98850.88;;;27.42;55.05
47430;BME280;33181;49.246;7.372;2022-08-05T11:00:19;98859.13;;;27.47;55.22
47430;BME280;33181;49.246;7.372;2022-08-05T11:05:33;98860.09;;;27.64;54.80
47430;BME280;33181;49.246;7.372;2022-08-05T11:08:05;98859.06;;;27.77;54.69
47430;BME280;33181;49.246;7.372;2022-08-05T11:10:33;98857.47;;;27.88;53.79
47430;BME280;33181;49.246;7.372;2022-08-05T11:13:02;98862.63;;;27.89;54.31
47430;BME280;33181;49.246;7.372;2022-08-05T11:15:32;98869.09;;;28.00;53.83
47430;BME280;33181;49.246;7.372;2022-08-05T11:18:23;98863.09;;;27.98;54.34
47430;BME280;33181;49.246;7.372;2022-08-05T11:20:51;98869.09;;;28.00;54.44
47430;BME280;33181;49.246;7.372;2022-08-05T11:23:41;98870.72;;;28.25;54.21
47430;BME280;33181;49.246;7.372;2022-08-05T11:26:18;98864.03;;;28.39;53.51
47430;BME280;33181;49.246;7.372;2022-08-05T11:32:28;98872.38;;;28.49;53.55
47430;BME280;33181;49.246;7.372;2022-08-05T11:34:55;98877.91;;;28.42;53.07
47430;BME280;33181;49.246;7.372;2022-08-05T11:37:41;98882.72;;;28.29;54.11
47430;BME280;33181;49.246;7.372;2022-08-05T11:40:07;98877.88;;;28.31;54.35
47430;BME280;33181;49.246;7.372;2022-08-05T11:42:33;98883.28;;;28.31;54.48
47430;BME280;33181;49.246;7.372;2022-08-05T11:45:05;98889.41;;;28.26;54.43
47430;BME280;33181;49.246;7.372;2022-08-05T11:47:36;98888.81;;;28.24;54.69
47430;BME280;33181;49.246;7.372;2022-08-05T11:50:03;98896.47;;;28.39;54.67
47430;BME280;33181;49.246;7.372;2022-08-05T11:52:29;98907.88;;;28.29;54.68
47430;BME280;33181;49.246;7.372;2022-08-05T11:55:52;98908.31;;;27.91;55.37
47430;BME280;33181;49.246;7.372;2022-08-05T11:58:35;98915.22;;;27.87;55.96
47430;BME280;33181;49.246;7.372;2022-08-05T12:01:05;98928.16;;;27.66;56.96
47430;BME280;33181;49.246;7.372;2022-08-05T12:07:11;98932.84;;;27.59;56.07
47430;BME280;33181;49.246;7.372;2022-08-05T12:09:48;98931.00;;;27.41;56.55
47430;BME280;33181;49.246;7.372;2022-08-05T12:12:27;98935.03;;;27.50;56.90
47430;BME280;33181;49.246;7.372;2022-08-05T12:14:54;98933.53;;;27.55;56.33
47430;BME280;33181;49.246;7.372;2022-08-05T12:17:20;98932.59;;;27.61;56.00
47430;BME280;33181;49.246;7.372;2022-08-05T12:19:52;98932.41;;;27.62;56.04
47430;BME280;33181;49.246;7.372;2022-08-05T12:22:25;98941.28;;;27.81;55.26
47430;BME280;33181;49.246;7.372;2022-08-05T12:24:51;98931.41;;;27.87;55.24
47430;BME280;33181;49.246;7.372;2022-08-05T12:27:28;98935.00;;;27.69;54.69
47430;BME280;33181;49.246;7.372;2022-08-05T12:30:08;98937.44;;;27.59;54.89
47430;BME280;33181;49.246;7.372;2022-08-05T12:32:47;98936.56;;;27.46;55.23
47430;BME280;33181;49.246;7.372;2022-08-05T12:35:19;98922.00;;;27.47;55.73
47430;BME280;33181;49.246;7.372;2022-08-05T12:37:46;98931.63;;;27.55;55.60
47430;BME280;33181;49.246;7.372;2022-08-05T12:40:12;98928.34;;;27.83;54.41
47430;BME280;33181;49.246;7.372;2022-08-05T12:42:38;98926.97;;;27.92;54.74
47430;BME280;33181;49.246;7.372;2022-08-05T12:45:07;98919.59;;;28.11;53.68
47430;BME280;33181;49.246;7.372;2022-08-05T12:47:33;98921.16;;;28.42;53.16
47430;BME280;33181;49.246;7.372;2022-08-05T12:50:12;98928.06;;;28.74;51.28
47430;BME280;33181;49.246;7.372;2022-08-05T12:52:38;98922.44;;;28.75;50.35
47430;BME280;33181;49.246;7.372;2022-08-05T12:55:26;98916.84;;;28.94;51.10
47430;BME280;33181;49.246;7.372;2022-08-05T12:57:54;98912.69;;;29.26;50.19
47430;BME280;33181;49.246;7.372;2022-08-05T13:00:23;98909.94;;;29.67;48.91
47430;BME280;33181;49.246;7.372;2022-08-05T13:02:51;98906.00;;;30.08;48.35
47430;BME280;33181;49.246;7.372;2022-08-05T13:05:16;98918.31;;;30.16;47.10
47430;BME280;33181;49.246;7.372;2022-08-05T13:07:44;98908.28;;;30.16;48.28
47430;BME280;33181;49.246;7.372;2022-08-05T13:10:13;98903.69;;;30.17;47.23
47430;BME280;33181;49.246;7.372;2022-08-05T13:12:44;98916.44;;;30.33;46.93
47430;BME280;33181;49.246;7.372;2022-08-05T13:15:12;98913.25;;;30.19;47.14
47430;BME280;33181;49.246;7.372;2022-08-05T13:17:39;98913.16;;;30.14;47.33
47430;BME280;33181;49.246;7.372;2022-08-05T13:22:41;98900.41;;;29.98;47.46
47430;BME280;33181;49.246;7.372;2022-08-05T13:25:13;98893.28;;;30.09;47.71
47430;BME280;33181;49.246;7.372;2022-08-05T13:30:12;98890.47;;;30.03;47.64
47430;BME280;33181;49.246;7.372;2022-08-05T13:32:39;98889.00;;;29.96;47.29
47430;BME280;33181;49.246;7.372;2022-08-05T13:35:05;98885.50;;;29.95;47.59
47430;BME280;33181;49.246;7.372;2022-08-05T13:37:32;98884.66;;;29.95;47.73
47430;BME280;33181;49.246;7.372;2022-08-05T13:39:58;98884.31;;;29.91;46.89
47430;BME280;33181;49.246;7.372;2022-08-05T13:42:24;98884.97;;;29.82;47.66